El Progreso, Honduras
Current Conditions -  °F | °C
As of 3:00 PM on Wednesday 26 Nov 2014 (Local Time) from MHLM Reporting Station
Broken Clouds Broken Clouds  
Wind Chill: 77°   Ceiling: 8000
Heat Index: 78°   Visibility: 6mi
Dew Point: 73°   Wind: 14mph
Humidity: 89%   Direction: 340°NNW
Pressure: 30"   Gusts: NA
Location:  15.4°N, 87.82°W
Report Text: MHLM 262100Z 34012KT 9999 SCT025 BKN080 25/23 Q1016 A3000NOSIG
Loading
Personal Weather Stations






























Interactive Weather Map New forecast layout! Learn more

10-Day Weather Forecast

Advertisements
Track Severe Weather on mobile